| time (UTC) | temp F | wind direction | speed knots | gust knots | rain 1hr in | rain 24hr in | rain mn in | humidity % | barometer mb |
| 20260508082638 | 32 | 282 | 0.0 | 0.0 | 0.00 | 0.00 | 0.00 | 97 | 1015.0 |
| 20260508082136 | 32 | 282 | 0.0 | 0.0 | 0.00 | 0.00 | 0.00 | 97 | 1014.9 |
| 20260508081633 | 33 | 282 | 0.0 | 0.0 | 0.00 | 0.00 | 0.00 | 97 | 1014.8 |
| 20260508081129 | 33 | 282 | 0.0 | 0.0 | 0.00 | 0.00 | 0.00 | 97 | 1014.9 |
| 20260508080627 | 33 | 282 | 0.0 | 0.0 | 0.00 | 0.00 | 0.00 | 97 | 1015.1 |
| 20260508080125 | 33 | 282 | 0.0 | 0.0 | 0.00 | 0.00 | 0.00 | 97 | 1014.9 |
| 20260508075620 | 33 | 282 | 0.0 | 0.0 | 0.00 | 0.00 | 0.00 | 96 | 1014.8 |
| 20260508075118 | 33 | 282 | 0.0 | 0.0 | 0.00 | 0.00 | 0.00 | 96 | 1014.9 |
| 20260508074610 | 33 | 282 | 0.0 | 0.0 | 0.00 | 0.00 | 0.00 | 96 | 1014.8 |
| 20260508074107 | 33 | 282 | 0.0 | 0.0 | 0.00 | 0.00 | 0.00 | 96 | 1015.0 |
| 20260508073604 | 33 | 282 | 0.0 | 0.0 | 0.00 | 0.00 | 0.00 | 96 | 1014.7 |
| 20260508073102 | 33 | 282 | 0.0 | 0.0 | 0.00 | 0.00 | 0.00 | 96 | 1014.8 |
| 20260508072557 | 33 | 283 | 0.0 | 0.0 | 0.00 | 0.00 | 0.00 | 96 | 1014.8 |
| 20260508072055 | 34 | 282 | 0.0 | 0.0 | 0.00 | 0.00 | 0.00 | 96 | 1014.6 |
| 20260508071553 | 34 | 282 | 0.0 | 0.0 | 0.00 | 0.00 | 0.00 | 95 | 1015.0 |
| 20260508071050 | 33 | 282 | 0.0 | 0.0 | 0.00 | 0.00 | 0.00 | 95 | 1014.7 |
| 20260508070547 | 33 | 282 | 0.0 | 0.0 | 0.00 | 0.00 | 0.00 | 95 | 1014.6 |
| 20260508070045 | 34 | 282 | 0.0 | 0.0 | 0.00 | 0.00 | 0.00 | 95 | 1014.9 |
| 20260508065543 | 34 | 282 | 0.0 | 0.0 | 0.00 | 0.00 | 0.00 | 95 | 1014.8 |
| 20260508065041 | 34 | 282 | 0.0 | 0.0 | 0.00 | 0.00 | 0.00 | 95 | 1015.0 |
| 20260508064538 | 34 | 282 | 0.0 | 0.9 | 0.00 | 0.00 | 0.00 | 95 | 1014.9 |
| 20260508064035 | 35 | 282 | 0.0 | 0.0 | 0.00 | 0.00 | 0.00 | 95 | 1015.1 |
| 20260508063533 | 35 | 282 | 0.0 | 0.0 | 0.00 | 0.00 | 0.00 | 95 | 1014.8 |
| 20260508063031 | 35 | 281 | 0.9 | 1.7 | 0.00 | 0.00 | 0.00 | 96 | 1015.1 |
| 20260508062528 | 34 | 281 | 0.0 | 0.0 | 0.00 | 0.00 | 0.00 | 96 | 1015.0 |
| 20260508062024 | 34 | 281 | 0.0 | 0.0 | 0.00 | 0.00 | 0.00 | 96 | 1014.7 |
| 20260508061522 | 35 | 280 | 0.0 | 0.0 | 0.00 | 0.00 | 0.00 | 96 | 1014.9 |
| 20260508061020 | 35 | 280 | 0.0 | 0.0 | 0.00 | 0.00 | 0.00 | 96 | 1014.9 |
| 20260508060516 | 35 | 280 | 0.0 | 0.0 | 0.00 | 0.00 | 0.00 | 95 | 1014.7 |
| 20260508060014 | 35 | 280 | 0.0 | 0.0 | 0.00 | 0.00 | 0.00 | 95 | 1014.6 |
| 20260508055509 | 36 | 280 | 0.0 | 0.0 | 0.00 | 0.00 | 0.00 | 95 | 1014.6 |
| 20260508055005 | 36 | 280 | 0.0 | 0.0 | 0.00 | 0.00 | 0.00 | 94 | 1014.6 |
| 20260508054502 | 36 | 280 | 0.0 | 0.0 | 0.00 | 0.00 | 0.00 | 94 | 1014.9 |
| 20260508053959 | 36 | 280 | 0.0 | 0.0 | 0.00 | 0.00 | 0.00 | 93 | 1014.6 |
| 20260508053456 | 37 | 280 | 0.0 | 0.0 | 0.00 | 0.00 | 0.00 | 92 | 1014.6 |
| 20260508052954 | 37 | 282 | 0.0 | 0.9 | 0.00 | 0.00 | 0.00 | 93 | 1014.7 |
| 20260508052451 | 37 | 282 | 0.0 | 0.0 | 0.00 | 0.00 | 0.00 | 91 | 1014.3 |
| 20260508051948 | 37 | 283 | 0.0 | 0.0 | 0.00 | 0.00 | 0.00 | 91 | 1014.6 |
| 20260508051443 | 37 | 283 | 0.0 | 0.0 | 0.00 | 0.00 | 0.00 | 92 | 1014.3 |
| 20260508050939 | 37 | 283 | 0.0 | 0.0 | 0.00 | 0.00 | 0.00 | 92 | 1014.6 |
| 20260508050436 | 38 | 283 | 0.0 | 0.9 | 0.00 | 0.00 | 0.00 | 92 | 1014.5 |
| 20260508045933 | 38 | 283 | 0.0 | 0.0 | 0.00 | 0.00 | 0.00 | 94 | 1014.4 |
| 20260508045430 | 38 | 283 | 0.0 | 0.0 | 0.00 | 0.00 | 0.00 | 92 | 1014.4 |
| 20260508044927 | 38 | 283 | 0.0 | 0.0 | 0.00 | 0.00 | 0.00 | 92 | 1014.5 |
| 20260508044425 | 38 | 283 | 0.0 | 0.0 | 0.00 | 0.00 | 0.00 | 92 | 1014.5 |
| 20260508043920 | 38 | 283 | 0.0 | 0.0 | 0.00 | 0.00 | 0.00 | 92 | 1014.4 |
| 20260508043418 | 38 | 283 | 0.0 | 0.0 | 0.00 | 0.00 | 0.00 | 92 | 1014.5 |
| 20260508042913 | 38 | 283 | 0.0 | 0.0 | 0.00 | 0.00 | 0.00 | 90 | 1014.2 |
| 20260508042412 | 39 | 282 | 0.0 | 0.0 | 0.00 | 0.00 | 0.00 | 88 | 1014.3 |
| 20260508041908 | 39 | 282 | 0.9 | 1.7 | 0.00 | 0.00 | 0.00 | 89 | 1014.4 |
| 20260508041405 | 40 | 282 | 0.9 | 1.7 | 0.00 | 0.00 | 0.00 | 89 | 1014.3 |
| 20260508040901 | 40 | 278 | 1.7 | 2.6 | 0.00 | 0.00 | 0.00 | 89 | 1014.3 |
| 20260508040358 | 40 | 289 | 1.7 | 2.6 | 0.00 | 0.00 | 0.00 | 89 | 1014.1 |
| 20260508035857 | 40 | 292 | 1.7 | 2.6 | 0.00 | 0.01 | 0.01 | 88 | 1014.0 |
| 20260508035353 | 40 | 292 | 0.9 | 2.6 | 0.00 | 0.01 | 0.01 | 88 | 1013.7 |
| 20260508034850 | 41 | 302 | 1.7 | 2.6 | 0.00 | 0.01 | 0.01 | 87 | 1014.0 |
| 20260508034347 | 41 | 302 | 1.7 | 1.7 | 0.00 | 0.01 | 0.01 | 86 | 1014.2 |
| 20260508033844 | 41 | 302 | 2.6 | 2.6 | 0.00 | 0.01 | 0.01 | 87 | 1014.0 |
| 20260508033342 | 41 | 276 | 1.7 | 1.7 | 0.00 | 0.01 | 0.01 | 88 | 1014.1 |
| 20260508032839 | 41 | 276 | 1.7 | 1.7 | 0.00 | 0.01 | 0.01 | 88 | 1014.2 |
| 20260508032337 | 41 | 273 | 0.9 | 1.7 | 0.00 | 0.01 | 0.01 | 88 | 1013.9 |
| 20260508031833 | 41 | 273 | 0.9 | 1.7 | 0.00 | 0.01 | 0.01 | 88 | 1014.1 |
| 20260508031330 | 41 | 274 | 1.7 | 1.7 | 0.00 | 0.01 | 0.01 | 88 | 1013.6 |
| 20260508030826 | 41 | 272 | 0.9 | 1.7 | 0.00 | 0.01 | 0.01 | 88 | 1013.9 |
| 20260508030324 | 42 | 297 | 0.9 | 0.9 | 0.00 | 0.01 | 0.01 | 86 | 1013.9 |
| 20260508025820 | 42 | 297 | 0.9 | 1.7 | 0.00 | 0.01 | 0.01 | 85 | 1013.7 |
| 20260508025317 | 42 | 298 | 0.9 | 1.7 | 0.00 | 0.01 | 0.01 | 86 | 1013.6 |
| 20260508024814 | 42 | 301 | 0.9 | 2.6 | 0.00 | 0.01 | 0.01 | 86 | 1013.6 |
| 20260508024311 | 42 | 301 | 1.7 | 1.7 | 0.00 | 0.01 | 0.01 | 85 | 1013.5 |
| 20260508023808 | 42 | 302 | 0.9 | 2.6 | 0.00 | 0.01 | 0.01 | 86 | 1013.4 |
| 20260508023304 | 43 | 302 | 0.9 | 1.7 | 0.00 | 0.01 | 0.01 | 85 | 1013.4 |
| 20260508022800 | 43 | 301 | 0.9 | 1.7 | 0.00 | 0.01 | 0.01 | 84 | 1013.3 |
| 20260508022257 | 43 | 300 | 0.9 | 1.7 | 0.00 | 0.01 | 0.01 | 84 | 1013.3 |
| 20260508021754 | 43 | 300 | 2.6 | 2.6 | 0.00 | 0.01 | 0.01 | 83 | 1013.0 |
| 20260508021249 | 43 | 279 | 0.9 | 1.7 | 0.00 | 0.01 | 0.01 | 82 | 1013.2 |
| 20260508020746 | 43 | 279 | 0.9 | 1.7 | 0.00 | 0.01 | 0.01 | 84 | 1013.0 |
| 20260508020244 | 43 | 279 | 0.0 | 0.0 | 0.00 | 0.01 | 0.01 | 83 | 1013.0 |
| 20260508015741 | 43 | 279 | 0.0 | 0.9 | 0.00 | 0.01 | 0.01 | 82 | 1013.2 |
| 20260508015238 | 44 | 279 | 0.9 | 0.9 | 0.00 | 0.01 | 0.01 | 81 | 1012.9 |
| 20260508014735 | 45 | 279 | 0.0 | 0.0 | 0.00 | 0.01 | 0.01 | 78 | 1013.0 |
| 20260508014232 | 46 | 279 | 1.7 | 1.7 | 0.00 | 0.01 | 0.01 | 78 | 1013.0 |
| 20260508013727 | 46 | 279 | 0.9 | 0.9 | 0.00 | 0.01 | 0.01 | 77 | 1012.7 |
| 20260508013224 | 47 | 279 | 0.9 | 0.9 | 0.00 | 0.01 | 0.01 | 76 | 1012.8 |
| 20260508012722 | 47 | 279 | 0.0 | 0.0 | 0.00 | 0.01 | 0.01 | 73 | 1012.6 |
| 20260508012218 | 47 | 279 | 0.0 | 0.0 | 0.00 | 0.01 | 0.01 | 72 | 1012.3 |
| 20260508011717 | 47 | 279 | 0.0 | 0.0 | 0.00 | 0.01 | 0.01 | 72 | 1012.4 |
| 20260508011214 | 48 | 279 | 0.0 | 0.0 | 0.00 | 0.01 | 0.01 | 70 | 1012.7 |
| 20260508010710 | 48 | 279 | 0.9 | 1.7 | 0.00 | 0.01 | 0.01 | 70 | 1012.6 |
| 20260508010208 | 49 | 279 | 1.7 | 2.6 | 0.00 | 0.01 | 0.01 | 70 | 1012.4 |
| 20260508005706 | 50 | 270 | 0.9 | 1.7 | 0.00 | 0.01 | 0.01 | 63 | 1012.5 |
| 20260508005202 | 50 | 288 | 0.9 | 0.9 | 0.00 | 0.01 | 0.01 | 63 | 1012.4 |
| 20260508004657 | 0 | 0.0 | 0.0 | 0.00 | 0.00 | 0.00 | 1012.3 | ||
| 20260508004154 | 0 | 0.0 | 0.0 | 0.00 | 0.00 | 0.00 | 1012.3 | ||
| 20260508003651 | 0 | 0.0 | 0.0 | 0.00 | 0.01 | 0.01 | 1012.0 | ||
| 20260508003148 | 0 | 0.0 | 0.0 | 0.00 | 0.01 | 0.01 | 1012.0 | ||
| 20260508002644 | 0 | 0.0 | 0.0 | 0.00 | 0.01 | 0.01 | 1012.2 | ||
| 20260508002143 | 0 | 0.0 | 0.0 | 0.00 | 0.01 | 0.01 | 1011.8 | ||
| 20260508001637 | 0 | 0.0 | 0.0 | 0.00 | 0.01 | 0.01 | 1011.8 | ||
| 20260508001133 | 0 | 0.0 | 0.0 | 0.00 | 0.01 | 0.01 | 1011.8 | ||
| 20260508000629 | 0 | 0.0 | 0.0 | 0.00 | 0.01 | 0.01 | 1011.7 | ||
| 20260508000127 | 0 | 0.0 | 0.0 | 0.00 | 0.01 | 0.01 | 1011.8 | ||
| 20260507235624 | 0 | 0.0 | 0.0 | 0.00 | 0.01 | 0.01 | 1011.8 | ||
| 20260507235121 | 55 | 305 | 3.5 | 3.5 | 0.00 | 0.01 | 0.01 | 56 | 1011.6 |
| 20260507234617 | 55 | 305 | 3.5 | 3.5 | 0.00 | 0.01 | 0.01 | 56 | 1011.5 |
| 20260507234114 | 55 | 315 | 3.5 | 3.5 | 0.00 | 0.01 | 0.01 | 56 | 1011.5 |
| 20260507233611 | 55 | 317 | 2.6 | 3.5 | 0.00 | 0.01 | 0.01 | 56 | 1011.7 |
| 20260507233110 | 55 | 313 | 4.3 | 5.2 | 0.00 | 0.01 | 0.01 | 55 | 1011.4 |
| 20260507232605 | 55 | 318 | 3.5 | 5.2 | 0.00 | 0.01 | 0.01 | 57 | 1011.5 |
| 20260507232103 | 55 | 314 | 5.2 | 7.0 | 0.00 | 0.01 | 0.01 | 55 | 1011.4 |
| 20260507231559 | 0 | 0.0 | 0.0 | 0.00 | 0.01 | 0.01 | 1011.1 | ||
| 20260507231057 | 55 | 311 | 1.7 | 2.6 | 0.00 | 0.01 | 0.01 | 58 | 1011.0 |
| 20260507230553 | 55 | 311 | 1.7 | 2.6 | 0.00 | 0.01 | 0.01 | 58 | 1010.9 |
| 20260507230050 | 0 | 0.0 | 0.0 | 0.00 | 0.01 | 0.01 | 1011.2 | ||
| 20260507225544 | 0 | 0.0 | 0.0 | 0.00 | 0.01 | 0.01 | 1011.1 | ||
| 20260507225041 | 57 | 301 | 4.3 | 6.1 | 0.00 | 0.01 | 0.01 | 54 | 1010.9 |
| 20260507224537 | 57 | 301 | 4.3 | 6.1 | 0.00 | 0.01 | 0.01 | 54 | 1011.1 |
| 20260507224034 | 58 | 296 | 3.5 | 5.2 | 0.00 | 0.01 | 0.01 | 55 | 1010.9 |
| 20260507223530 | 0 | 0.0 | 0.0 | 0.00 | 0.01 | 0.01 | 1010.9 | ||
| 20260507223027 | 0 | 0.0 | 0.0 | 0.00 | 0.01 | 0.01 | 1010.9 | ||
| 20260507222524 | 57 | 286 | 3.5 | 5.2 | 0.00 | 0.01 | 0.01 | 54 | 1010.5 |
| 20260507222020 | 57 | 286 | 3.5 | 5.2 | 0.00 | 0.01 | 0.01 | 54 | 1010.8 |
| 20260507221517 | 60 | 282 | 2.6 | 2.6 | 0.00 | 0.01 | 0.01 | 54 | 1010.8 |
| 20260507221014 | 60 | 282 | 2.6 | 2.6 | 0.00 | 0.01 | 0.01 | 54 | 1010.7 |
| 20260507220511 | 60 | 67 | 0.9 | 1.7 | 0.00 | 0.01 | 0.01 | 54 | 1010.5 |
| 20260507220009 | 61 | 291 | 3.5 | 5.2 | 0.00 | 0.01 | 0.01 | 54 | 1010.3 |
| 20260507215505 | 61 | 304 | 1.7 | 2.6 | 0.00 | 0.01 | 0.01 | 55 | 1010.7 |
| 20260507215003 | 61 | 304 | 1.7 | 2.6 | 0.00 | 0.01 | 0.01 | 55 | 1010.3 |
| 20260507214459 | 61 | 289 | 3.5 | 3.5 | 0.00 | 0.01 | 0.01 | 51 | 1010.1 |
| 20260507213954 | 61 | 115 | 1.7 | 3.5 | 0.00 | 0.01 | 0.01 | 54 | 1010.5 |
| 20260507213447 | 61 | 348 | 5.2 | 6.1 | 0.00 | 0.01 | 0.01 | 51 | 1010.0 |
| 20260507212943 | 62 | 334 | 3.5 | 7.8 | 0.00 | 0.01 | 0.01 | 51 | 1010.2 |
| 20260507212439 | 60 | 310 | 3.5 | 5.2 | 0.00 | 0.01 | 0.01 | 54 | 1010.2 |
| 20260507211936 | 61 | 320 | 4.3 | 7.0 | 0.00 | 0.01 | 0.01 | 51 | 1010.0 |
| 20260507211432 | 62 | 301 | 2.6 | 2.6 | 0.00 | 0.01 | 0.01 | 52 | 1010.0 |
| 20260507210929 | 61 | 291 | 1.7 | 6.1 | 0.00 | 0.01 | 0.01 | 54 | 1009.7 |
| 20260507210421 | 61 | 314 | 3.5 | 5.2 | 0.00 | 0.01 | 0.01 | 53 | 1009.9 |
| 20260507205917 | 61 | 355 | 1.7 | 6.1 | 0.00 | 0.01 | 0.01 | 49 | 1009.9 |
| 20260507205415 | 62 | 288 | 2.6 | 5.2 | 0.00 | 0.01 | 0.01 | 52 | 1009.9 |
| 20260507204910 | 62 | 268 | 3.5 | 5.2 | 0.00 | 0.01 | 0.01 | 49 | 1009.8 |
| 20260507204407 | 62 | 278 | 4.3 | 5.2 | 0.00 | 0.01 | 0.01 | 55 | 1009.8 |
| 20260507203905 | 63 | 181 | 4.3 | 5.2 | 0.00 | 0.01 | 0.01 | 51 | 1009.6 |
| 20260507203402 | 62 | 284 | 3.5 | 5.2 | 0.00 | 0.01 | 0.01 | 52 | 1009.7 |
| 20260507202858 | 61 | 332 | 1.7 | 3.5 | 0.00 | 0.01 | 0.01 | 56 | 1009.8 |
| 20260507202355 | 61 | 259 | 4.3 | 6.1 | 0.00 | 0.01 | 0.01 | 54 | 1010.0 |
| 20260507201850 | 61 | 308 | 1.7 | 6.1 | 0.00 | 0.01 | 0.01 | 56 | 1009.9 |
| 20260507201346 | 61 | 229 | 5.2 | 6.1 | 0.00 | 0.01 | 0.01 | 54 | 1009.9 |
| 20260507200843 | 61 | 277 | 2.6 | 12.2 | 0.00 | 0.01 | 0.01 | 57 | 1010.0 |
| 20260507200339 | 61 | 350 | 1.7 | 3.5 | 0.00 | 0.01 | 0.01 | 53 | 1009.9 |
| 20260507195835 | 61 | 326 | 3.5 | 5.2 | 0.00 | 0.01 | 0.01 | 56 | 1010.0 |
| 20260507195332 | 60 | 161 | 1.7 | 2.6 | 0.00 | 0.01 | 0.01 | 55 | 1010.0 |
| 20260507194830 | 60 | 285 | 4.3 | 6.1 | 0.00 | 0.01 | 0.01 | 58 | 1010.0 |
| 20260507194325 | 60 | 222 | 2.6 | 7.0 | 0.00 | 0.01 | 0.01 | 61 | 1010.2 |
| 20260507193822 | 61 | 291 | 4.3 | 7.0 | 0.00 | 0.01 | 0.01 | 61 | 1010.3 |
| 20260507193319 | 60 | 252 | 1.7 | 3.5 | 0.00 | 0.01 | 0.01 | 64 | 1010.3 |
| 20260507192814 | 58 | 290 | 3.5 | 8.7 | 0.00 | 0.01 | 0.01 | 62 | 1010.5 |
| 20260507192312 | 58 | 288 | 6.1 | 9.6 | 0.00 | 0.01 | 0.01 | 62 | 1010.7 |
| 20260507191808 | 59 | 320 | 2.6 | 6.1 | 0.00 | 0.01 | 0.01 | 61 | 1010.7 |
| 20260507191304 | 60 | 328 | 3.5 | 7.0 | 0.00 | 0.01 | 0.01 | 61 | 1010.7 |
| 20260507190801 | 58 | 317 | 7.8 | 9.6 | 0.00 | 0.01 | 0.01 | 63 | 1011.0 |
| 20260507190300 | 57 | 338 | 5.2 | 7.8 | 0.00 | 0.01 | 0.01 | 65 | 1010.8 |
| 20260507185758 | 57 | 278 | 3.5 | 5.2 | 0.00 | 0.01 | 0.01 | 65 | 1010.7 |
| 20260507185254 | 56 | 265 | 3.5 | 5.2 | 0.00 | 0.01 | 0.01 | 65 | 1011.0 |
| 20260507184752 | 57 | 328 | 5.2 | 7.8 | 0.00 | 0.01 | 0.01 | 65 | 1010.9 |
| 20260507184250 | 60 | 291 | 1.7 | 3.5 | 0.00 | 0.01 | 0.01 | 66 | 1010.7 |
| 20260507183747 | 59 | 312 | 1.7 | 2.6 | 0.00 | 0.01 | 0.01 | 67 | 1010.8 |
| 20260507183244 | 60 | 286 | 1.7 | 3.5 | 0.00 | 0.01 | 0.01 | 64 | 1010.7 |
| 20260507182742 | 61 | 275 | 3.5 | 3.5 | 0.00 | 0.01 | 0.01 | 64 | 1010.6 |
| 20260507182241 | 61 | 154 | 0.9 | 3.5 | 0.00 | 0.01 | 0.01 | 63 | 1010.5 |
| 20260507181739 | 60 | 311 | 2.6 | 5.2 | 0.00 | 0.01 | 0.01 | 61 | 1010.6 |
| 20260507181235 | 59 | 304 | 2.6 | 5.2 | 0.00 | 0.01 | 0.01 | 63 | 1010.6 |
| 20260507180732 | 57 | 276 | 2.6 | 5.2 | 0.00 | 0.01 | 0.01 | 65 | 1010.7 |
| 20260507180229 | 57 | 290 | 3.5 | 5.2 | 0.00 | 0.01 | 0.01 | 67 | 1010.8 |
| 20260507175724 | 57 | 278 | 4.3 | 7.0 | 0.00 | 0.01 | 0.01 | 66 | 1010.7 |
| 20260507175221 | 57 | 306 | 1.7 | 2.6 | 0.00 | 0.01 | 0.01 | 65 | 1010.6 |
| 20260507174719 | 57 | 343 | 4.3 | 5.2 | 0.00 | 0.01 | 0.01 | 63 | 1010.7 |
| 20260507174217 | 57 | 350 | 3.5 | 5.2 | 0.00 | 0.01 | 0.01 | 61 | 1010.6 |
| 20260507173714 | 58 | 279 | 3.5 | 6.1 | 0.00 | 0.01 | 0.01 | 63 | 1010.6 |
| 20260507173210 | 59 | 320 | 1.7 | 5.2 | 0.00 | 0.01 | 0.01 | 61 | 1010.7 |
| 20260507172707 | 59 | 258 | 7.8 | 9.6 | 0.00 | 0.01 | 0.01 | 61 | 1010.6 |
| 20260507172204 | 59 | 139 | 2.6 | 3.5 | 0.00 | 0.01 | 0.01 | 61 | 1010.8 |
| 20260507171704 | 58 | 87 | 0.9 | 1.7 | 0.00 | 0.01 | 0.01 | 63 | 1010.8 |
| 20260507171202 | 58 | 100 | 1.7 | 2.6 | 0.00 | 0.01 | 0.01 | 64 | 1010.9 |
| 20260507170659 | 58 | 321 | 2.6 | 2.6 | 0.00 | 0.01 | 0.01 | 66 | 1011.1 |
| 20260507170156 | 56 | 326 | 2.6 | 7.0 | 0.00 | 0.01 | 0.01 | 64 | 1011.1 |
| 20260507165651 | 57 | 303 | 3.5 | 5.2 | 0.00 | 0.01 | 0.01 | 63 | 1011.3 |
| 20260507165148 | 58 | 288 | 1.7 | 3.5 | 0.00 | 0.01 | 0.01 | 59 | 1011.3 |
| 20260507164644 | 59 | 310 | 0.0 | 0.9 | 0.00 | 0.01 | 0.01 | 62 | 1011.2 |
| 20260507164141 | 58 | 310 | 1.7 | 3.5 | 0.00 | 0.01 | 0.01 | 68 | 1011.1 |
| 20260507163638 | 58 | 293 | 2.6 | 5.2 | 0.00 | 0.01 | 0.01 | 65 | 1011.1 |
| 20260507163136 | 58 | 240 | 0.9 | 1.7 | 0.00 | 0.01 | 0.01 | 66 | 1011.2 |
| 20260507162632 | 56 | 203 | 1.7 | 1.7 | 0.00 | 0.01 | 0.01 | 70 | 1011.3 |
| 20260507162128 | 57 | 204 | 1.7 | 3.5 | 0.00 | 0.01 | 0.01 | 69 | 1011.4 |
| 20260507161624 | 57 | 328 | 1.7 | 2.6 | 0.00 | 0.01 | 0.01 | 67 | 1011.4 |
| 20260507161121 | 57 | 328 | 0.9 | 2.6 | 0.00 | 0.01 | 0.01 | 65 | 1011.8 |
| 20260507160617 | 57 | 329 | 0.9 | 1.7 | 0.00 | 0.01 | 0.01 | 71 | 1011.5 |
| 20260507160114 | 56 | 329 | 0.0 | 0.9 | 0.00 | 0.01 | 0.01 | 64 | 1011.5 |
| 20260507155609 | 56 | 329 | 0.0 | 0.9 | 0.00 | 0.01 | 0.01 | 69 | 1011.7 |
| 20260507155106 | 55 | 329 | 0.0 | 0.0 | 0.00 | 0.01 | 0.01 | 69 | 1012.0 |
| 20260507154603 | 55 | 329 | 0.9 | 1.7 | 0.00 | 0.01 | 0.01 | 69 | 1011.9 |
| 20260507154100 | 56 | 330 | 0.9 | 1.7 | 0.00 | 0.01 | 0.01 | 72 | 1011.8 |
| 20260507153557 | 55 | 95 | 0.9 | 2.6 | 0.00 | 0.01 | 0.01 | 69 | 1011.6 |
| 20260507153053 | 55 | 96 | 1.7 | 1.7 | 0.00 | 0.01 | 0.01 | 69 | 1011.7 |
| 20260507152549 | 55 | 96 | 1.7 | 2.6 | 0.00 | 0.01 | 0.01 | 69 | 1011.7 |
| 20260507152046 | 55 | 118 | 0.0 | 1.7 | 0.00 | 0.01 | 0.01 | 67 | 1011.7 |
| 20260507151542 | 54 | 321 | 0.9 | 2.6 | 0.00 | 0.01 | 0.01 | 70 | 1012.2 |
| 20260507151039 | 54 | 321 | 1.7 | 1.7 | 0.00 | 0.01 | 0.01 | 69 | 1011.8 |
| 20260507150536 | 53 | 262 | 1.7 | 5.2 | 0.00 | 0.01 | 0.01 | 72 | 1011.9 |
| 20260507150033 | 52 | 336 | 0.0 | 3.5 | 0.00 | 0.01 | 0.01 | 72 | 1012.0 |
| 20260507145527 | 53 | 341 | 4.3 | 5.2 | 0.00 | 0.01 | 0.01 | 73 | 1011.9 |
| 20260507145026 | 52 | 281 | 1.7 | 2.6 | 0.00 | 0.01 | 0.01 | 74 | 1011.8 |
| 20260507144522 | 52 | 330 | 3.5 | 6.1 | 0.00 | 0.01 | 0.01 | 74 | 1011.9 |
| 20260507144020 | 52 | 339 | 3.5 | 5.2 | 0.00 | 0.01 | 0.01 | 73 | 1012.0 |
| 20260507143517 | 52 | 338 | 2.6 | 3.5 | 0.00 | 0.01 | 0.01 | 78 | 1012.0 |
| 20260507143014 | 52 | 340 | 0.0 | 1.7 | 0.00 | 0.01 | 0.01 | 74 | 1012.0 |
| 20260507142509 | 51 | 340 | 1.7 | 3.5 | 0.00 | 0.01 | 0.01 | 74 | 1012.2 |
| 20260507142006 | 51 | 339 | 1.7 | 2.6 | 0.00 | 0.01 | 0.01 | 74 | 1011.9 |
| 20260507141502 | 51 | 339 | 1.7 | 1.7 | 0.00 | 0.01 | 0.01 | 76 | 1012.2 |
| 20260507140959 | 50 | 327 | 3.5 | 5.2 | 0.00 | 0.01 | 0.01 | 77 | 1012.0 |
| 20260507140456 | 50 | 337 | 1.7 | 5.2 | 0.00 | 0.01 | 0.01 | 80 | 1012.2 |
| 20260507135953 | 50 | 336 | 1.7 | 2.6 | 0.00 | 0.01 | 0.01 | 78 | 1012.4 |
| 20260507135450 | 50 | 336 | 2.6 | 3.5 | 0.00 | 0.01 | 0.01 | 78 | 1012.5 |
| 20260507134947 | 50 | 330 | 1.7 | 3.5 | 0.00 | 0.01 | 0.01 | 78 | 1012.5 |
| 20260507134443 | 50 | 340 | 2.6 | 2.6 | 0.00 | 0.01 | 0.01 | 79 | 1012.6 |
| 20260507133940 | 50 | 340 | 1.7 | 1.7 | 0.00 | 0.01 | 0.01 | 81 | 1013.0 |
| 20260507133436 | 49 | 340 | 2.6 | 2.6 | 0.00 | 0.01 | 0.01 | 79 | 1012.8 |
| 20260507132930 | 49 | 342 | 2.6 | 3.5 | 0.00 | 0.01 | 0.01 | 83 | 1012.8 |
| 20260507132425 | 49 | 315 | 1.7 | 2.6 | 0.00 | 0.01 | 0.01 | 82 | 1012.7 |
| 20260507131922 | 49 | 315 | 2.6 | 2.6 | 0.00 | 0.01 | 0.01 | 82 | 1013.0 |
| 20260507131419 | 49 | 312 | 3.5 | 5.2 | 0.00 | 0.01 | 0.01 | 80 | 1012.7 |
| 20260507130916 | 49 | 313 | 3.5 | 3.5 | 0.00 | 0.01 | 0.01 | 82 | 1012.8 |
| 20260507130413 | 49 | 324 | 2.6 | 5.2 | 0.00 | 0.01 | 0.01 | 81 | 1012.9 |
| 20260507125912 | 49 | 307 | 2.6 | 3.5 | 0.00 | 0.01 | 0.01 | 84 | 1012.8 |
| 20260507125409 | 49 | 310 | 3.5 | 3.5 | 0.00 | 0.01 | 0.01 | 85 | 1012.9 |
| 20260507124906 | 49 | 304 | 1.7 | 5.2 | 0.00 | 0.01 | 0.01 | 84 | 1013.0 |
| 20260507124402 | 49 | 310 | 2.6 | 3.5 | 0.00 | 0.01 | 0.01 | 86 | 1012.6 |
| 20260507123901 | 49 | 327 | 3.5 | 6.1 | 0.00 | 0.01 | 0.01 | 85 | 1012.7 |
| 20260507123357 | 49 | 342 | 3.5 | 6.1 | 0.00 | 0.01 | 0.01 | 86 | 1012.7 |
| 20260507122854 | 49 | 344 | 2.6 | 3.5 | 0.00 | 0.01 | 0.01 | 89 | 1012.3 |
| 20260507122349 | 49 | 344 | 2.6 | 3.5 | 0.00 | 0.01 | 0.01 | 88 | 1012.5 |
| 20260507121846 | 49 | 297 | 3.5 | 5.2 | 0.00 | 0.01 | 0.01 | 89 | 1012.4 |
| 20260507121341 | 49 | 282 | 1.7 | 2.6 | 0.00 | 0.01 | 0.01 | 90 | 1012.3 |
| 20260507120838 | 50 | 282 | 2.6 | 2.6 | 0.00 | 0.01 | 0.01 | 90 | 1012.3 |
| 20260507120335 | 49 | 282 | 2.6 | 3.5 | 0.00 | 0.01 | 0.01 | 91 | 1012.2 |
| 20260507115831 | 50 | 280 | 1.7 | 2.6 | 0.00 | 0.01 | 0.01 | 90 | 1012.6 |
| 20260507115326 | 50 | 280 | 2.6 | 3.5 | 0.00 | 0.01 | 0.01 | 91 | 1012.2 |
| 20260507114822 | 50 | 269 | 0.9 | 2.6 | 0.00 | 0.01 | 0.01 | 93 | 1012.4 |
| 20260507114320 | 49 | 243 | 1.7 | 2.6 | 0.00 | 0.01 | 0.01 | 92 | 1012.4 |
| 20260507113817 | 49 | 243 | 0.9 | 1.7 | 0.00 | 0.01 | 0.01 | 92 | 1012.0 |
| 20260507113314 | 49 | 243 | 1.7 | 2.6 | 0.00 | 0.01 | 0.01 | 93 | 1012.2 |
| 20260507112812 | 49 | 242 | 0.9 | 1.7 | 0.00 | 0.01 | 0.01 | 93 | 1011.8 |
| 20260507112308 | 49 | 242 | 1.7 | 2.6 | 0.00 | 0.01 | 0.01 | 93 | 1012.2 |
| 20260507111807 | 49 | 242 | 0.0 | 0.0 | 0.00 | 0.01 | 0.01 | 94 | 1011.9 |
| 20260507111303 | 49 | 242 | 0.0 | 1.7 | 0.00 | 0.01 | 0.01 | 94 | 1012.0 |
| 20260507110759 | 49 | 242 | 0.9 | 1.7 | 0.00 | 0.01 | 0.01 | 94 | 1011.9 |
| 20260507110255 | 49 | 242 | 0.9 | 1.7 | 0.00 | 0.01 | 0.01 | 95 | 1012.0 |
| 20260507105752 | 49 | 242 | 1.7 | 2.6 | 0.00 | 0.01 | 0.01 | 94 | 1011.7 |
| 20260507105248 | 49 | 240 | 0.9 | 1.7 | 0.00 | 0.01 | 0.01 | 95 | 1011.7 |
| 20260507104745 | 49 | 226 | 0.0 | 1.7 | 0.00 | 0.01 | 0.01 | 96 | 1011.6 |
| 20260507104236 | 49 | 226 | 0.9 | 1.7 | 0.00 | 0.01 | 0.01 | 96 | 1011.7 |
| 20260507103732 | 49 | 226 | 0.0 | 0.9 | 0.00 | 0.01 | 0.01 | 96 | 1011.6 |
| 20260507103229 | 50 | 226 | 0.9 | 0.9 | 0.00 | 0.01 | 0.01 | 96 | 1011.7 |
| 20260507102725 | 50 | 226 | 0.9 | 0.9 | 0.00 | 0.01 | 0.01 | 96 | 1011.6 |
| 20260507102221 | 50 | 226 | 0.9 | 0.9 | 0.00 | 0.01 | 0.01 | 96 | 1011.7 |
| 20260507101718 | 50 | 226 | 0.0 | 0.9 | 0.00 | 0.01 | 0.01 | 96 | 1011.4 |
| 20260507101213 | 50 | 226 | 0.0 | 1.7 | 0.00 | 0.01 | 0.01 | 96 | 1011.2 |
| 20260507100711 | 50 | 226 | 0.0 | 0.0 | 0.00 | 0.01 | 0.01 | 96 | 1011.3 |
| 20260507100209 | 50 | 226 | 0.0 | 0.0 | 0.00 | 0.01 | 0.01 | 96 | 1011.4 |
| 20260507095707 | 50 | 226 | 0.0 | 0.0 | 0.00 | 0.01 | 0.01 | 96 | 1011.1 |
| 20260507095203 | 50 | 226 | 0.0 | 0.0 | 0.00 | 0.01 | 0.01 | 96 | 1011.4 |
| 20260507094700 | 50 | 226 | 0.0 | 0.0 | 0.00 | 0.01 | 0.01 | 95 | 1011.3 |
| 20260507094156 | 50 | 226 | 0.0 | 0.0 | 0.00 | 0.01 | 0.01 | 95 | 1011.3 |
| 20260507093654 | 50 | 226 | 0.0 | 0.0 | 0.00 | 0.01 | 0.01 | 95 | 1011.3 |
| 20260507093152 | 50 | 226 | 0.0 | 0.0 | 0.00 | 0.01 | 0.01 | 95 | 1011.6 |
| 20260507092648 | 50 | 226 | 0.0 | 0.0 | 0.00 | 0.01 | 0.01 | 95 | 1011.6 |
| 20260507092139 | 50 | 226 | 0.0 | 0.0 | 0.00 | 0.01 | 0.01 | 95 | 1011.4 |
| 20260507091636 | 51 | 226 | 0.0 | 0.0 | 0.00 | 0.01 | 0.01 | 95 | 1011.2 |
| 20260507091132 | 51 | 226 | 0.0 | 0.0 | 0.00 | 0.01 | 0.01 | 95 | 1011.3 |
| 20260507090628 | 0 | 0.0 | 0.0 | 0.00 | 0.01 | 0.01 | 1011.4 | ||
| 20260507090126 | 51 | 226 | 0.0 | 0.0 | 0.00 | 0.01 | 0.01 | 95 | 1011.5 |
| 20260507085622 | 51 | 226 | 0.0 | 0.0 | 0.00 | 0.01 | 0.01 | 95 | 1011.7 |
| 20260507085119 | 51 | 226 | 0.9 | 1.7 | 0.00 | 0.01 | 0.01 | 95 | 1011.5 |
| 20260507084616 | 51 | 226 | 0.0 | 0.9 | 0.05 | 0.01 | 0.01 | 95 | 1011.5 |
| 20260507084113 | 51 | 226 | 0.0 | 0.0 | 0.05 | 0.01 | 0.01 | 95 | 1011.7 |
| 20260507083609 | 0 | 0.0 | 0.0 | 0.00 | 0.00 | 0.00 | 1011.6 |